createdAt,value
2022-07-26T00:01:02.009Z,95105.22
2022-07-26T00:03:30.125Z,95098.50
2022-07-26T00:05:58.346Z,95091.97
2022-07-26T00:08:26.336Z,95104.19
2022-07-26T00:10:54.130Z,95096.94
2022-07-26T00:13:23.435Z,95105.78
2022-07-26T00:15:51.951Z,95106.81
2022-07-26T00:18:20.402Z,95101.88
2022-07-26T00:20:49.413Z,95114.09
2022-07-26T00:23:19.406Z,95119.28
2022-07-26T00:25:47.597Z,95122.16
2022-07-26T00:28:15.493Z,95110.94
2022-07-26T00:30:44.841Z,95107.56
2022-07-26T00:33:12.898Z,95092.19
2022-07-26T00:35:40.878Z,95071.94
2022-07-26T00:38:09.526Z,95066.22
2022-07-26T00:40:37.465Z,95047.22
2022-07-26T00:43:05.404Z,95049.88
2022-07-26T00:45:33.219Z,95050.41
2022-07-26T00:48:02.443Z,95051.50
2022-07-26T00:50:30.317Z,95047.63
2022-07-26T00:52:58.227Z,95048.66
2022-07-26T00:55:26.132Z,95048.34
2022-07-26T00:57:54.005Z,95042.41
2022-07-26T01:00:26.448Z,95031.72
2022-07-26T01:02:54.593Z,95036.84
2022-07-26T01:05:25.244Z,95031.38
2022-07-26T01:07:54.302Z,95031.72
2022-07-26T01:10:22.183Z,95029.59
2022-07-26T01:12:50.018Z,95028.00
2022-07-26T01:15:18.533Z,95035.56
2022-07-26T01:17:47.404Z,95043.09
2022-07-26T01:20:15.998Z,95049.31
2022-07-26T01:22:45.262Z,95043.09
2022-07-26T01:25:13.090Z,95049.31
2022-07-26T01:27:41.120Z,95040.97
2022-07-26T01:30:12.375Z,95049.81
2022-07-26T01:32:40.445Z,95048.50
2022-07-26T01:35:09.453Z,95049.28
2022-07-26T01:37:37.393Z,95049.06
2022-07-26T01:40:08.107Z,95055.31
2022-07-26T01:42:40.687Z,95050.09
2022-07-26T01:45:09.186Z,95057.38
2022-07-26T01:47:37.104Z,95065.19
2022-07-26T01:50:06.430Z,95062.56
2022-07-26T01:52:36.593Z,95058.56
2022-07-26T01:55:06.332Z,95057.84
2022-07-26T01:57:34.490Z,95066.72
2022-07-26T02:00:02.590Z,95066.78
2022-07-26T02:02:35.128Z,95061.00
2022-07-26T02:05:03.744Z,95049.81
2022-07-26T02:07:34.198Z,95061.31
2022-07-26T02:10:02.073Z,95058.22
2022-07-26T02:12:31.374Z,95058.75
2022-07-26T02:14:59.734Z,95065.28
2022-07-26T02:17:27.752Z,95066.78
2022-07-26T02:19:55.570Z,95066.53
2022-07-26T02:22:23.608Z,95063.91
2022-07-26T02:24:52.180Z,95082.69
2022-07-26T02:27:21.656Z,95078.31
2022-07-26T02:29:50.867Z,95071.75
2022-07-26T02:32:18.929Z,95076.44
2022-07-26T02:34:46.744Z,95075.13
2022-07-26T02:37:14.521Z,95076.41
2022-07-26T02:39:42.363Z,95074.03
2022-07-26T02:42:10.152Z,95071.94
2022-07-26T02:44:38.003Z,95070.38
2022-07-26T02:47:07.300Z,95079.50
2022-07-26T02:49:35.081Z,95082.59
2022-07-26T02:52:02.972Z,95086.50
2022-07-26T02:54:30.830Z,95087.03
2022-07-26T02:56:58.614Z,95079.53
2022-07-26T02:59:26.381Z,95071.44
2022-07-26T03:01:54.344Z,95068.03
2022-07-26T03:04:23.788Z,95066.50
2022-07-26T03:06:51.881Z,95070.19
2022-07-26T03:09:19.779Z,95070.44
2022-07-26T03:11:47.643Z,95077.50
2022-07-26T03:14:15.551Z,95069.41
2022-07-26T03:16:43.317Z,95068.84
2022-07-26T03:19:11.294Z,95066.78
2022-07-26T03:21:40.555Z,95067.03
2022-07-26T03:24:08.817Z,95076.63
2022-07-26T03:26:37.283Z,95070.69
2022-07-26T03:29:05.072Z,95080.34
2022-07-26T03:31:32.866Z,95081.91
2022-07-26T03:34:03.930Z,95070.66
2022-07-26T03:36:31.779Z,95077.94
2022-07-26T03:39:01.135Z,95068.56
2022-07-26T03:41:31.567Z,95074.31
2022-07-26T03:43:59.403Z,95074.00
2022-07-26T03:46:27.698Z,95068.78
2022-07-26T03:48:55.704Z,95056.53
2022-07-26T03:51:23.749Z,95054.97
2022-07-26T03:53:51.594Z,95043.25
2022-07-26T03:56:28.878Z,95042.19
2022-07-26T03:58:57.017Z,95043.72
2022-07-26T04:01:24.952Z,95051.53
2022-07-26T04:03:52.872Z,95057.84
2022-07-26T04:06:22.530Z,95057.34
2022-07-26T04:08:51.168Z,95061.28
2022-07-26T04:11:20.727Z,95061.78
2022-07-26T04:13:48.616Z,95057.88
2022-07-26T04:16:16.437Z,95063.84
2022-07-26T04:18:44.420Z,95063.06
2022-07-26T04:21:12.221Z,95067.47
2022-07-26T04:23:40.107Z,95081.28
2022-07-26T04:26:08.085Z,95078.16
2022-07-26T04:28:37.368Z,95083.41
2022-07-26T04:31:05.296Z,95092.34
2022-07-26T04:33:34.098Z,95089.19
2022-07-26T04:36:03.291Z,95087.81
2022-07-26T04:38:31.215Z,95089.13
2022-07-26T04:40:59.176Z,95084.25
2022-07-26T04:43:27.196Z,95087.34
2022-07-26T04:45:57.559Z,95092.78
2022-07-26T04:48:25.984Z,95092.00
2022-07-26T04:50:54.260Z,95087.88
2022-07-26T04:53:22.248Z,95091.31
2022-07-26T04:55:50.144Z,95097.91
2022-07-26T04:58:19.241Z,95101.47
2022-07-26T05:01:08.963Z,95103.63
2022-07-26T05:03:37.333Z,95109.00
2022-07-26T05:06:05.511Z,95112.91
2022-07-26T05:08:33.424Z,95114.00
2022-07-26T05:11:01.240Z,95122.28
2022-07-26T05:13:30.670Z,95111.59
2022-07-26T05:15:59.117Z,95108.97
2022-07-26T05:18:27.517Z,95112.56
2022-07-26T05:20:59.686Z,95109.19
2022-07-26T05:23:27.556Z,95116.75
2022-07-26T05:25:55.471Z,95115.50
2022-07-26T05:28:23.276Z,95115.22
2022-07-26T05:30:51.398Z,95106.31
2022-07-26T05:33:19.330Z,95112.28
2022-07-26T05:35:47.279Z,95116.75
2022-07-26T05:38:16.769Z,95105.06
2022-07-26T05:40:48.657Z,95118.59
2022-07-26T05:43:18.418Z,95118.88
2022-07-26T05:45:46.339Z,95117.03
2022-07-26T05:48:14.160Z,95108.66
2022-07-26T05:50:42.015Z,95115.47
2022-07-26T05:53:10.472Z,95122.75
2022-07-26T05:55:39.901Z,95111.75
2022-07-26T05:58:07.753Z,95120.31
2022-07-26T06:00:35.884Z,95132.31
2022-07-26T06:03:21.910Z,95126.56
2022-07-26T06:05:50.246Z,95117.16
2022-07-26T06:08:19.662Z,95116.47
2022-07-26T06:10:49.650Z,95128.00
2022-07-26T06:13:18.009Z,95121.72
2022-07-26T06:15:46.373Z,95127.72
2022-07-26T06:18:14.947Z,95132.97
2022-07-26T06:20:44.444Z,95133.34
2022-07-26T06:23:13.435Z,95136.47
2022-07-26T06:25:41.487Z,95140.13
2022-07-26T06:28:12.167Z,95143.25
2022-07-26T06:30:41.028Z,95133.56
2022-07-26T06:33:09.566Z,95138.03
2022-07-26T06:35:38.790Z,95133.91
2022-07-26T06:38:07.607Z,95149.94
2022-07-26T06:40:36.537Z,95145.84
2022-07-26T06:43:04.991Z,95143.50
2022-07-26T06:45:34.826Z,95140.13
2022-07-26T06:48:02.757Z,95150.28
2022-07-26T06:50:30.873Z,95151.50
2022-07-26T06:52:58.860Z,95155.13
2022-07-26T06:55:26.735Z,95137.78
2022-07-26T06:57:54.574Z,95139.44
2022-07-26T07:00:23.711Z,95136.22
2022-07-26T07:02:52.933Z,95128.16
2022-07-26T07:05:20.965Z,95139.31
2022-07-26T07:07:49.117Z,95135.22
2022-07-26T07:10:17.016Z,95135.13
2022-07-26T07:12:47.159Z,95144.47
2022-07-26T07:15:14.973Z,95138.44
2022-07-26T07:17:42.903Z,95133.28
2022-07-26T07:20:13.379Z,95138.22
2022-07-26T07:22:41.217Z,95148.88
2022-07-26T07:25:09.434Z,95132.25
2022-07-26T07:27:37.375Z,95140.28
2022-07-26T07:30:06.310Z,95129.06
2022-07-26T07:32:35.692Z,95127.66
2022-07-26T07:35:03.828Z,95130.06
2022-07-26T07:37:53.762Z,95124.50
2022-07-26T07:40:22.811Z,95126.06
2022-07-26T07:42:50.806Z,95138.59
2022-07-26T07:45:18.860Z,95130.88
2022-07-26T07:47:46.810Z,95115.94
2022-07-26T07:50:14.717Z,95125.22
2022-07-26T07:52:44.033Z,95135.22
2022-07-26T07:55:37.716Z,95137.88
2022-07-26T07:58:00.764Z,95149.56
2022-07-26T08:00:28.752Z,95150.53
2022-07-26T08:02:56.569Z,95149.47
2022-07-26T08:05:24.433Z,95149.34
2022-07-26T08:07:54.187Z,95148.69
2022-07-26T08:10:22.576Z,95138.97
2022-07-26T08:12:51.451Z,95144.53
2022-07-26T08:15:21.319Z,95157.56
2022-07-26T08:17:54.559Z,95159.34
2022-07-26T08:20:23.457Z,95162.44
2022-07-26T08:22:51.725Z,95161.25
2022-07-26T08:25:21.253Z,95161.31
2022-07-26T08:28:03.130Z,95155.53
2022-07-26T08:30:31.850Z,95156.72
2022-07-26T08:32:59.953Z,95165.56
2022-07-26T08:35:29.507Z,95162.66
2022-07-26T08:37:57.768Z,95143.88
2022-07-26T08:40:27.131Z,95151.03
2022-07-26T08:42:57.470Z,95156.06
2022-07-26T08:45:26.661Z,95168.09
2022-07-26T08:48:16.745Z,95172.84
2022-07-26T08:50:43.118Z,95163.91
2022-07-26T08:53:12.936Z,95167.16
2022-07-26T08:56:05.867Z,95166.56
2022-07-26T08:58:30.087Z,95176.50
2022-07-26T09:01:06.178Z,95175.00
2022-07-26T09:03:37.752Z,95178.81
2022-07-26T09:06:17.993Z,95190.22
2022-07-26T09:08:47.246Z,95197.38
2022-07-26T09:11:31.306Z,95201.59
2022-07-26T09:14:01.517Z,95201.44
2022-07-26T09:16:30.379Z,95196.00
2022-07-26T09:19:19.272Z,95189.66
2022-07-26T09:21:47.492Z,95196.78
2022-07-26T09:24:31.471Z,95203.56
2022-07-26T09:27:02.918Z,95195.09
2022-07-26T09:29:32.294Z,95194.34
2022-07-26T09:32:19.546Z,95204.22
2022-07-26T09:34:52.908Z,95198.75
2022-07-26T09:37:35.766Z,95204.25
2022-07-26T09:40:06.306Z,95203.75
2022-07-26T09:42:36.145Z,95207.25
2022-07-26T09:45:05.183Z,95201.03
2022-07-26T09:47:40.654Z,95210.47
2022-07-26T09:50:14.169Z,95215.19
2022-07-26T09:52:42.219Z,95217.97
2022-07-26T09:55:13.147Z,95211.59
2022-07-26T09:57:42.427Z,95217.91
2022-07-26T10:00:14.575Z,95215.31
2022-07-26T10:02:42.577Z,95212.72
2022-07-26T10:05:11.189Z,95215.34
2022-07-26T10:07:39.606Z,95213.25
2022-07-26T10:10:11.668Z,95215.81
2022-07-26T10:12:39.823Z,95221.59
2022-07-26T10:15:40.264Z,95214.09
2022-07-26T10:18:09.748Z,95206.75
2022-07-26T10:20:47.261Z,95221.81
2022-07-26T10:23:35.161Z,95216.91
2022-07-26T10:26:04.657Z,95221.66
2022-07-26T10:28:35.442Z,95224.59
2022-07-26T10:31:30.911Z,95220.22
2022-07-26T10:34:00.771Z,95229.34
2022-07-26T10:36:34.646Z,95219.13
2022-07-26T10:39:11.716Z,95223.44
2022-07-26T10:41:45.584Z,95231.50
2022-07-26T10:44:26.013Z,95235.66
2022-07-26T10:47:12.251Z,95229.69
2022-07-26T10:49:42.209Z,95225.38
2022-07-26T10:52:12.969Z,95237.97
2022-07-26T10:55:07.113Z,95222.34
2022-07-26T10:57:36.357Z,95226.28
2022-07-26T11:00:10.552Z,95218.44
2022-07-26T11:02:40.532Z,95228.56
2022-07-26T11:05:14.232Z,95219.47
2022-07-26T11:08:01.473Z,95225.13
2022-07-26T11:10:31.490Z,95231.53
2022-07-26T11:13:05.494Z,95220.78
2022-07-26T11:15:34.283Z,95225.19
2022-07-26T11:18:24.989Z,95214.84
2022-07-26T11:20:55.168Z,95222.66
2022-07-26T11:23:36.528Z,95222.84
2022-07-26T11:26:13.420Z,95222.97
2022-07-26T11:28:54.223Z,95218.47
2022-07-26T11:31:49.507Z,95220.56
2022-07-26T11:34:19.744Z,95214.81
2022-07-26T11:36:48.563Z,95211.19
2022-07-26T11:39:21.410Z,95221.06
2022-07-26T11:41:50.393Z,95210.13
2022-07-26T11:44:19.706Z,95218.84
2022-07-26T11:46:48.543Z,95216.56
2022-07-26T11:49:20.057Z,95209.50
2022-07-26T11:51:52.834Z,95204.78
2022-07-26T11:54:21.290Z,95204.75
2022-07-26T11:56:54.192Z,95203.47
2022-07-26T11:59:23.463Z,95201.91
2022-07-26T12:01:51.945Z,95202.56
2022-07-26T12:04:23.180Z,95207.38
2022-07-26T12:06:51.518Z,95208.81
2022-07-26T12:09:35.250Z,95200.16
2022-07-26T12:12:05.657Z,95196.72
2022-07-26T12:14:35.546Z,95189.34
2022-07-26T12:17:14.732Z,95197.59
2022-07-26T12:19:44.958Z,95193.44
2022-07-26T12:22:14.629Z,95188.63
2022-07-26T12:24:45.908Z,95193.72
2022-07-26T12:27:17.278Z,95187.00
2022-07-26T12:29:46.797Z,95184.84
2022-07-26T12:32:16.903Z,95186.59
2022-07-26T12:34:58.776Z,95190.91
2022-07-26T12:37:39.310Z,95189.16
2022-07-26T12:40:11.017Z,95182.63
2022-07-26T12:42:40.666Z,95187.97
2022-07-26T12:45:11.374Z,95186.28
2022-07-26T12:47:40.702Z,95194.84
2022-07-26T12:50:12.041Z,95187.06
2022-07-26T12:52:40.526Z,95197.72
2022-07-26T12:55:11.668Z,95188.56
2022-07-26T12:57:45.913Z,95191.59
2022-07-26T13:00:18.462Z,95185.63
2022-07-26T13:02:46.689Z,95187.97
2022-07-26T13:05:16.654Z,95184.56
2022-07-26T13:07:44.627Z,95191.66
2022-07-26T13:10:32.669Z,95186.59
2022-07-26T13:13:01.188Z,95180.66
2022-07-26T13:15:36.494Z,95189.84
2022-07-26T13:18:08.053Z,95163.53
2022-07-26T13:20:38.582Z,95173.84
2022-07-26T13:23:09.695Z,95175.88
2022-07-26T13:25:40.507Z,95155.19
2022-07-26T13:28:09.353Z,95165.41
2022-07-26T13:30:38.584Z,95169.31
2022-07-26T13:33:06.505Z,95164.72
2022-07-26T13:35:34.478Z,95172.72
2022-07-26T13:38:03.799Z,95174.34
2022-07-26T13:40:32.192Z,95169.44
2022-07-26T13:43:00.529Z,95172.44
2022-07-26T13:45:29.418Z,95172.13
2022-07-26T13:47:57.564Z,95167.09
2022-07-26T13:50:28.537Z,95158.66
2022-07-26T13:52:56.730Z,95158.84
2022-07-26T13:55:26.656Z,95164.16
2022-07-26T13:57:56.792Z,95165.06
2022-07-26T14:00:25.432Z,95155.06
2022-07-26T14:02:53.560Z,95161.81
2022-07-26T14:05:21.773Z,95167.38
2022-07-26T14:07:49.867Z,95190.06
2022-07-26T14:10:17.715Z,95170.06
2022-07-26T14:12:48.967Z,95171.59
2022-07-26T14:15:21.989Z,95168.16
2022-07-26T14:17:50.491Z,95172.53
2022-07-26T14:20:18.379Z,95170.63
2022-07-26T14:22:46.287Z,95171.28
2022-07-26T14:25:14.677Z,95175.81
2022-07-26T14:27:42.545Z,95173.53
2022-07-26T14:30:13.244Z,95175.69
2022-07-26T14:32:41.379Z,95179.69
2022-07-26T14:35:10.226Z,95171.34
2022-07-26T14:37:42.678Z,95172.53
2022-07-26T14:40:13.797Z,95166.44
2022-07-26T14:42:41.716Z,95162.56
2022-07-26T14:45:12.595Z,95160.72
2022-07-26T14:47:40.948Z,95165.16
2022-07-26T14:50:10.300Z,95154.59
2022-07-26T14:52:39.551Z,95157.63
2022-07-26T14:55:08.936Z,95163.97
2022-07-26T14:57:39.307Z,95159.09
2022-07-26T15:00:09.687Z,95161.91
2022-07-26T15:02:41.607Z,95161.72
2022-07-26T15:05:10.805Z,95151.34
2022-07-26T15:07:38.790Z,95148.47
2022-07-26T15:10:08.190Z,95141.88
2022-07-26T15:12:36.407Z,95147.41
2022-07-26T15:15:04.829Z,95156.16
2022-07-26T15:17:33.138Z,95154.28
2022-07-26T15:20:03.079Z,95146.31
2022-07-26T15:22:31.155Z,95146.97
2022-07-26T15:24:59.148Z,95141.16
2022-07-26T15:27:27.189Z,95137.59
2022-07-26T15:29:59.568Z,95139.81
2022-07-26T15:32:31.361Z,95137.47
2022-07-26T15:35:00.403Z,95151.28
2022-07-26T15:37:30.077Z,95144.78
2022-07-26T15:39:58.249Z,95136.28
2022-07-26T15:42:26.119Z,95138.53
2022-07-26T15:44:54.142Z,95129.63
2022-07-26T15:47:52.448Z,95136.94
2022-07-26T15:50:15.013Z,95130.41
2022-07-26T15:52:46.152Z,95133.38
2022-07-26T15:55:16.702Z,95135.03
2022-07-26T15:57:45.248Z,95138.44
2022-07-26T16:00:15.842Z,95131.38
2022-07-26T16:02:43.768Z,95128.47
2022-07-26T16:05:12.757Z,95132.19
2022-07-26T16:07:42.318Z,95131.63
2022-07-26T16:10:13.700Z,95110.56
2022-07-26T16:12:42.876Z,95126.56
2022-07-26T16:15:12.161Z,95123.91
2022-07-26T16:17:40.437Z,95118.47
2022-07-26T16:20:09.084Z,95114.25
2022-07-26T16:22:40.768Z,95130.63
2022-07-26T16:25:13.163Z,95124.09
2022-07-26T16:27:42.278Z,95128.06
2022-07-26T16:30:11.606Z,95125.94
2022-07-26T16:32:39.823Z,95119.38
2022-07-26T16:35:08.370Z,95116.13
2022-07-26T16:37:36.384Z,95116.31
2022-07-26T16:40:05.209Z,95122.25
2022-07-26T16:42:34.461Z,95123.47
2022-07-26T16:45:02.390Z,95117.16
2022-07-26T16:47:30.367Z,95117.72
2022-07-26T16:49:58.392Z,95125.88
2022-07-26T16:52:27.326Z,95117.22
2022-07-26T16:54:55.444Z,95121.69
2022-07-26T16:57:23.422Z,95123.28
2022-07-26T16:59:52.677Z,95118.97
2022-07-26T17:02:20.675Z,95123.28
2022-07-26T17:04:48.725Z,95118.97
2022-07-26T17:07:25.407Z,95105.47
2022-07-26T17:09:54.158Z,95116.34
2022-07-26T17:12:22.243Z,95116.19
2022-07-26T17:14:50.174Z,95113.06
2022-07-26T17:17:19.392Z,95114.13
2022-07-26T17:19:47.255Z,95127.50
2022-07-26T17:22:15.169Z,95125.41
2022-07-26T17:24:43.257Z,95118.81
2022-07-26T17:27:11.411Z,95119.84
2022-07-26T17:29:39.314Z,95113.97
2022-07-26T17:32:08.696Z,95128.66
2022-07-26T17:34:38.153Z,95127.06
2022-07-26T17:37:10.211Z,95130.00
2022-07-26T17:39:53.554Z,95132.19
2022-07-26T17:42:22.421Z,95132.34
2022-07-26T17:44:50.952Z,95116.50
2022-07-26T17:47:28.871Z,95128.34
2022-07-26T17:50:26.157Z,95129.38
2022-07-26T17:52:49.145Z,95129.13
2022-07-26T17:55:18.376Z,95136.44
2022-07-26T17:57:46.626Z,95132.03
2022-07-26T18:00:16.006Z,95139.22
2022-07-26T18:02:43.968Z,95135.91
2022-07-26T18:05:13.734Z,95133.84
2022-07-26T18:07:41.965Z,95138.34
2022-07-26T18:10:11.662Z,95128.13
2022-07-26T18:12:40.657Z,95130.53
2022-07-26T18:15:09.423Z,95128.44
2022-07-26T18:17:37.524Z,95133.19
2022-07-26T18:20:06.524Z,95126.91
2022-07-26T18:22:35.783Z,95123.78
2022-07-26T18:25:03.907Z,95128.19
2022-07-26T18:27:31.967Z,95129.69
2022-07-26T18:30:00.543Z,95128.44
2022-07-26T18:32:28.556Z,95131.06
2022-07-26T18:34:59.151Z,95135.69
2022-07-26T18:37:27.049Z,95136.81
2022-07-26T18:39:58.090Z,95131.09
2022-07-26T18:42:27.815Z,95130.03
2022-07-26T18:44:55.877Z,95136.19
2022-07-26T18:47:23.966Z,95134.41
2022-07-26T18:49:51.961Z,95135.53
2022-07-26T18:52:28.709Z,95138.69
2022-07-26T18:55:06.638Z,95129.00
2022-07-26T18:57:35.408Z,95137.09
2022-07-26T19:00:12.297Z,95142.38
2022-07-26T19:02:40.176Z,95145.00
2022-07-26T19:05:10.591Z,95139.53
2022-07-26T19:07:38.621Z,95141.09
2022-07-26T19:10:10.055Z,95142.66
2022-07-26T19:12:41.367Z,95154.66
2022-07-26T19:15:10.258Z,95146.84
2022-07-26T19:17:38.909Z,95151.59
2022-07-26T19:20:13.720Z,95158.38
2022-07-26T19:22:44.051Z,95154.72
2022-07-26T19:25:14.732Z,95162.31
2022-07-26T19:27:46.172Z,95155.50
2022-07-26T19:30:15.981Z,95159.97
2022-07-26T19:32:46.753Z,95164.13
2022-07-26T19:35:14.590Z,95162.56
2022-07-26T19:37:43.631Z,95171.50
2022-07-26T19:40:14.445Z,95168.59
2022-07-26T19:42:44.122Z,95180.34
2022-07-26T19:45:12.557Z,95172.50
2022-07-26T19:47:40.684Z,95174.00
2022-07-26T19:50:16.634Z,95175.06
2022-07-26T19:52:44.761Z,95181.59
2022-07-26T19:55:15.945Z,95173.00
2022-07-26T19:57:45.584Z,95176.66
2022-07-26T20:00:19.722Z,95174.03
2022-07-26T20:02:47.658Z,95170.91
2022-07-26T20:05:15.869Z,95158.59
2022-07-26T20:07:49.196Z,95150.81
2022-07-26T20:10:21.389Z,95150.94
2022-07-26T20:12:51.541Z,95155.81
2022-07-26T20:15:22.407Z,95152.00
2022-07-26T20:17:53.249Z,95144.59
2022-07-26T20:20:26.781Z,95142.72
2022-07-26T20:22:56.362Z,95134.72
2022-07-26T20:25:26.083Z,95144.94
2022-07-26T20:27:54.368Z,95144.94
2022-07-26T20:30:22.597Z,95147.28
2022-07-26T20:32:53.471Z,95159.88
2022-07-26T20:35:23.711Z,95161.16
2022-07-26T20:37:52.105Z,95156.19
2022-07-26T20:40:20.180Z,95157.25
2022-07-26T20:42:52.935Z,95156.97
2022-07-26T20:45:20.957Z,95163.13
2022-07-26T20:47:49.165Z,95162.78
2022-07-26T20:50:17.177Z,95161.69
2022-07-26T20:52:47.323Z,95157.09
2022-07-26T20:55:16.095Z,95163.44
2022-07-26T20:57:44.163Z,95153.31
2022-07-26T21:00:20.585Z,95155.94
2022-07-26T21:02:50.677Z,95162.78
2022-07-26T21:05:27.803Z,95157.41
2022-07-26T21:08:00.097Z,95157.34
2022-07-26T21:10:32.344Z,95174.78
2022-07-26T21:13:01.259Z,95161.84
2022-07-26T21:15:34.260Z,95158.66
2022-07-26T21:18:05.467Z,95148.28
2022-07-26T21:20:33.636Z,95167.06
2022-07-26T21:23:17.371Z,95162.31
2022-07-26T21:25:46.979Z,95163.13
2022-07-26T21:28:14.945Z,95163.47
2022-07-26T21:30:44.195Z,95159.84
2022-07-26T21:33:12.120Z,95152.22
2022-07-26T21:35:41.005Z,95151.69
2022-07-26T21:38:10.020Z,95153.25
2022-07-26T21:40:40.958Z,95157.41
2022-07-26T21:43:11.725Z,95158.69
2022-07-26T21:45:41.754Z,95153.19
2022-07-26T21:48:11.026Z,95155.56
2022-07-26T21:50:38.963Z,95153.97
2022-07-26T21:53:06.956Z,95156.06
2022-07-26T21:55:37.801Z,95161.81
2022-07-26T21:58:05.897Z,95157.19
2022-07-26T22:00:34.614Z,95157.69
2022-07-26T22:03:02.476Z,95164.97
2022-07-26T22:05:38.993Z,95158.69
2022-07-26T22:08:07.864Z,95164.72
2022-07-26T22:10:44.007Z,95169.59
2022-07-26T22:13:13.868Z,95166.72
2022-07-26T22:15:42.873Z,95157.91
2022-07-26T22:18:14.089Z,95155.28
2022-07-26T22:20:44.102Z,95157.84
2022-07-26T22:23:13.678Z,95150.56
2022-07-26T22:25:41.599Z,95156.31
2022-07-26T22:28:11.111Z,95158.91
2022-07-26T22:30:39.630Z,95156.28
2022-07-26T22:33:10.137Z,95157.59
2022-07-26T22:35:38.071Z,95148.47
2022-07-26T22:38:09.433Z,95152.31
2022-07-26T22:40:38.006Z,95151.88
2022-07-26T22:43:06.822Z,95149.78
2022-07-26T22:45:34.817Z,95157.66
2022-07-26T22:48:03.947Z,95150.38
2022-07-26T22:50:32.370Z,95152.75
2022-07-26T22:53:02.096Z,95158.75
2022-07-26T22:55:32.350Z,95149.09
2022-07-26T22:58:01.905Z,95146.75
2022-07-26T23:00:30.303Z,95139.41
2022-07-26T23:02:58.122Z,95136.75
2022-07-26T23:05:36.052Z,95133.13
2022-07-26T23:08:44.250Z,95142.72
2022-07-26T23:11:03.342Z,95140.06
2022-07-26T23:13:32.415Z,95139.00
2022-07-26T23:16:01.638Z,95143.69
2022-07-26T23:18:31.174Z,95149.94
2022-07-26T23:20:59.112Z,95141.19
2022-07-26T23:23:29.198Z,95153.66
2022-07-26T23:25:58.958Z,95142.25
2022-07-26T23:28:37.329Z,95151.19
2022-07-26T23:31:07.889Z,95146.97
2022-07-26T23:33:50.558Z,95148.28
2022-07-26T23:36:21.685Z,95152.16
2022-07-26T23:38:49.498Z,95146.16
2022-07-26T23:41:17.312Z,95144.81
2022-07-26T23:43:46.533Z,95141.06
2022-07-26T23:46:14.457Z,95136.03
2022-07-26T23:48:42.450Z,95137.00
2022-07-26T23:51:10.603Z,95130.03
2022-07-26T23:53:38.511Z,95134.22
2022-07-26T23:56:06.754Z,95130.66
2022-07-26T23:58:34.674Z,95129.63
